.
WxDataArchive / Data Records for 2006-04-09
2006-04-08 April 2006 2006-04-10

Data Records for Sunday, 09 April 2006

Time	Temp	Chill	HIndex	Humid	Dewpt	 Wind 	HiWind	WindDir	Rain 	Barom 
-----	----	-----	------	-----	-----	------	------	-------	-----	----- 
00:00	34.0	34.0	34.0	66	23.9	0	0	---	0.00	30.193 
00:05	33.7	33.7	33.7	67	23.9	0	0	---	0.00	30.193 
00:10	33.8	33.8	33.8	69	24.7	0	1	22	0.00	30.193 
00:15	33.8	33.8	33.8	69	24.7	0	1	22	0.00	30.194 
00:20	34.1	34.1	34.1	67	24.3	0	2	338	0.00	30.194 
00:25	34.7	34.7	34.7	65	24.2	1	3	292	0.00	30.194 
00:30	35.2	35.2	35.2	64	24.3	0	2	292	0.00	30.194 
00:35	35.5	35.5	35.5	63	24.2	0	1	292	0.00	30.194 
00:40	35.3	35.3	35.3	64	24.4	0	2	292	0.00	30.194 
00:45	35.2	35.2	35.2	64	24.3	0	2	292	0.00	30.194 
00:50	35.3	35.3	35.3	64	24.4	0	1	292	0.00	30.194 
00:55	35.3	35.3	35.3	64	24.4	0	0	---	0.00	30.194 
01:00	35.2	35.2	35.2	64	24.3	0	0	---	0.00	30.197 
01:05	35.0	35.0	35.0	65	24.4	0	0	---	0.00	30.197 
01:10	34.7	34.7	34.7	65	24.2	0	0	---	0.00	30.197 
01:15	34.4	34.4	34.4	66	24.2	0	0	---	0.00	30.193 
01:20	34.1	34.1	34.1	67	24.3	0	0	---	0.00	30.193 
01:25	33.7	33.7	33.7	68	24.3	0	0	---	0.00	30.193 
01:30	33.4	33.4	33.4	69	24.3	0	0	---	0.00	30.195 
01:35	32.9	32.9	32.9	70	24.2	0	0	---	0.00	30.195 
01:40	32.7	32.7	32.7	72	24.7	0	0	---	0.00	30.195 
01:45	32.4	32.4	32.4	72	24.4	0	0	---	0.00	30.197 
01:50	32.1	32.1	32.1	73	24.4	0	0	---	0.00	30.197 
01:55	31.9	31.9	31.9	73	24.2	0	0	---	0.00	30.197 
02:00	31.6	31.6	31.6	74	24.3	0	0	---	0.00	30.196 
02:05	31.3	31.3	31.3	75	24.3	0	0	---	0.00	30.196 
02:10	31.0	31.0	31.0	76	24.3	0	0	---	0.00	30.196 
02:15	30.7	30.7	30.7	77	24.4	0	0	---	0.00	30.198 
02:20	30.4	30.4	30.4	79	24.7	0	0	---	0.00	30.198 
02:25	30.1	30.1	30.1	78	24.1	0	0	---	0.00	30.198 
02:30	30.1	30.1	30.1	78	24.1	0	0	---	0.00	30.203 
02:35	29.8	29.8	29.8	80	24.4	0	0	---	0.00	30.203 
02:40	29.7	29.7	29.7	80	24.3	0	0	---	0.00	30.203 
02:45	29.5	29.5	29.5	80	24.1	0	0	---	0.00	30.198 
02:50	29.3	29.3	29.3	81	24.2	0	0	---	0.00	30.198 
02:55	29.1	29.1	29.1	81	24.0	0	0	---	0.00	30.198 
03:00	28.8	28.8	28.8	81	23.7	0	0	---	0.00	30.194 
03:05	28.5	28.5	28.5	82	23.7	0	0	---	0.00	30.194 
03:10	28.4	28.4	28.4	83	23.9	0	0	---	0.00	30.194 
03:15	28.5	28.5	28.5	84	24.3	0	0	---	0.00	30.193 
03:20	28.5	28.5	28.5	85	24.6	0	0	---	0.00	30.193 
03:25	28.5	28.5	28.5	85	24.6	0	0	---	0.00	30.193 
03:30	28.4	28.4	28.4	85	24.5	0	0	---	0.00	30.195 
03:35	28.2	28.2	28.2	84	24.0	0	0	---	0.00	30.195 
03:40	28.2	28.2	28.2	85	24.3	0	0	---	0.00	30.195 
03:45	28.1	28.1	28.1	84	23.9	0	0	---	0.00	30.197 
03:50	27.9	27.9	27.9	85	24.0	0	0	---	0.00	30.197 
03:55	27.9	27.9	27.9	85	24.0	0	0	---	0.00	30.197 
04:00	27.8	27.8	27.8	86	24.2	0	0	---	0.00	30.200 
04:05	27.8	27.8	27.8	86	24.2	0	0	---	0.00	30.200 
04:10	27.8	27.8	27.8	86	24.2	0	0	---	0.00	30.200 
04:15	27.8	27.8	27.8	86	24.2	0	0	---	0.00	30.199 
04:20	27.6	27.6	27.6	86	24.0	0	0	---	0.00	30.199 
04:25	27.6	27.6	27.6	86	24.0	0	0	---	0.00	30.199 
04:30	27.5	27.5	27.5	86	23.9	0	0	---	0.00	30.202 
04:35	27.3	27.3	27.3	87	24.0	0	0	---	0.00	30.202 
04:40	27.3	27.3	27.3	87	24.0	0	0	---	0.00	30.202 
04:45	27.2	27.2	27.2	87	23.9	0	0	---	0.00	30.207 
04:50	26.9	26.9	26.9	86	23.3	0	0	---	0.00	30.207 
04:55	26.7	26.7	26.7	86	23.1	0	0	---	0.00	30.207 
05:00	26.6	26.6	26.6	87	23.3	0	0	---	0.00	30.211 
05:05	26.6	26.6	26.6	87	23.3	0	0	---	0.00	30.211 
05:10	26.6	26.6	26.6	88	23.5	0	0	---	0.00	30.211 
05:15	26.6	26.6	26.6	88	23.5	0	0	---	0.00	30.211 
05:20	26.7	26.7	26.7	89	23.9	0	0	---	0.00	30.211 
05:25	26.7	26.7	26.7	88	23.6	0	0	---	0.00	30.211 
05:30	26.6	26.6	26.6	88	23.5	0	0	---	0.00	30.215 
05:35	26.6	26.6	26.6	88	23.5	0	0	---	0.00	30.215 
05:40	26.6	26.6	26.6	88	23.5	0	0	---	0.00	30.215 
05:45	26.6	26.6	26.6	88	23.5	0	0	---	0.00	30.223 
05:50	26.6	26.6	26.6	88	23.5	0	0	---	0.00	30.223 
05:55	26.6	26.6	26.6	88	23.5	0	0	---	0.00	30.223 
06:00	26.4	26.4	26.4	87	23.1	0	0	---	0.00	30.222 
06:05	26.3	26.3	26.3	87	23.0	0	0	---	0.00	30.222 
06:10	26.0	26.0	26.0	87	22.7	0	0	---	0.00	30.222 
06:15	26.1	26.1	26.1	88	23.0	0	0	---	0.00	30.228 
06:20	26.1	26.1	26.1	88	23.0	0	0	---	0.00	30.228 
06:25	26.1	26.1	26.1	88	23.0	0	0	---	0.00	30.228 
06:30	26.3	26.3	26.3	88	23.2	0	0	---	0.00	30.235 
06:35	26.3	26.3	26.3	88	23.2	0	0	---	0.00	30.235 
06:40	26.1	26.1	26.1	88	23.0	0	0	---	0.00	30.235 
06:45	26.1	26.1	26.1	88	23.0	0	0	---	0.00	30.239 
06:50	26.1	26.1	26.1	88	23.0	0	0	---	0.00	30.239 
06:55	26.0	26.0	26.0	88	22.9	0	0	---	0.00	30.239 
07:00	25.7	25.7	25.7	88	22.6	0	0	---	0.00	30.242 
07:05	25.7	25.7	25.7	88	22.6	0	0	---	0.00	30.242 
07:10	25.7	25.7	25.7	88	22.6	0	0	---	0.00	30.242 
07:15	25.6	25.6	25.6	88	22.5	0	0	---	0.00	30.251 
07:20	25.6	25.6	25.6	88	22.5	0	0	---	0.00	30.251 
07:25	25.6	25.6	25.6	88	22.5	0	0	---	0.00	30.251 
07:30	25.6	25.6	25.6	88	22.5	0	0	---	0.00	30.253 
07:35	25.6	25.6	25.6	88	22.5	0	0	---	0.00	30.253 
07:40	25.7	25.7	25.7	89	22.9	0	0	---	0.00	30.253 
07:45	25.8	25.8	25.8	89	23.0	0	0	---	0.00	30.260 
07:50	26.0	26.0	26.0	89	23.2	0	0	---	0.00	30.260 
07:55	26.4	26.4	26.4	90	23.9	0	0	---	0.00	30.260 
08:00	27.2	27.2	27.2	91	24.9	0	0	---	0.00	30.266 
08:05	27.8	27.8	27.8	90	25.3	0	0	---	0.00	30.266 
08:10	28.4	28.4	28.4	90	25.8	0	0	---	0.00	30.266 
08:15	29.0	29.0	29.0	89	26.2	0	0	---	0.00	30.273 
08:20	29.8	29.8	29.8	88	26.7	0	0	---	0.00	30.273 
08:25	30.9	30.9	30.9	85	26.9	0	0	---	0.00	30.273 
08:30	32.1	32.1	32.1	82	27.2	0	0	---	0.00	30.274 
08:35	33.4	33.4	33.4	78	27.3	0	0	---	0.00	30.274 
08:40	34.7	34.7	34.7	73	26.9	0	1	292	0.00	30.274 
08:45	35.8	35.8	35.8	70	27.0	0	1	292	0.00	30.273 
08:50	36.5	36.5	36.5	67	26.6	0	2	270	0.00	30.273 
08:55	37.0	37.0	37.0	63	25.6	1	4	270	0.00	30.273 
09:00	37.5	37.5	37.5	61	25.3	2	5	248	0.00	30.281 
09:05	37.8	37.8	37.8	59	24.8	2	5	248	0.00	30.281 
09:10	38.3	38.3	38.3	61	26.0	1	3	225	0.00	30.281 
09:15	39.1	39.1	39.1	59	26.0	1	4	225	0.00	30.286 
09:20	39.5	39.5	39.5	58	26.0	2	4	248	0.00	30.286 
09:25	40.1	40.1	40.1	60	27.3	1	4	248	0.00	30.286 
09:30	40.5	40.5	40.5	54	25.2	2	6	248	0.00	30.285 
09:35	40.6	40.6	40.6	54	25.3	3	6	248	0.00	30.285 
09:40	41.1	41.1	41.1	54	25.7	2	3	248	0.00	30.285 
09:45	41.6	41.6	41.6	57	27.5	1	3	248	0.00	30.285 
09:50	42.3	42.3	42.3	52	25.9	1	4	248	0.00	30.285 
09:55	42.9	42.9	42.9	54	27.4	1	2	248	0.00	30.285 
10:00	43.5	43.5	43.5	54	28.0	1	2	248	0.00	30.284 
10:05	43.8	43.8	43.8	51	26.9	2	4	248	0.00	30.284 
10:10	44.1	44.1	44.1	50	26.7	1	3	248	0.00	30.284 
10:15	44.5	44.5	44.5	49	26.5	1	2	248	0.00	30.286 
10:20	44.9	44.9	44.9	49	26.9	1	3	270	0.00	30.286 
10:25	45.2	45.2	45.2	49	27.2	1	2	270	0.00	30.286 
10:30	45.7	45.7	45.7	49	27.6	1	2	270	0.00	30.281 
10:35	46.0	46.0	46.0	46	26.4	1	2	270	0.00	30.281 
10:40	46.1	46.1	46.1	48	27.5	1	3	270	0.00	30.281 
10:45	46.7	46.7	46.7	46	27.0	2	3	248	0.00	30.278 
10:50	47.1	47.1	47.1	47	27.9	1	4	90	0.00	30.278 
10:55	47.3	47.3	47.3	45	27.0	2	4	248	0.00	30.278 
11:00	47.1	47.1	47.1	44	26.3	0	2	248	0.00	30.278 
11:05	47.7	47.7	47.7	43	26.3	1	5	248	0.00	30.278 
11:10	47.9	47.9	47.9	44	27.0	0	2	248	0.00	30.278 
11:15	48.2	48.2	48.2	41	25.6	1	5	248	0.00	30.281 
11:20	48.5	48.5	48.5	46	28.7	1	3	248	0.00	30.281 
11:25	48.5	48.5	48.5	44	27.6	1	4	248	0.00	30.281 
11:30	48.8	48.8	48.8	44	27.9	1	2	270	0.00	30.277 
11:35	48.8	48.8	48.8	42	26.7	2	4	270	0.00	30.277 
11:40	48.6	48.6	48.6	41	26.0	1	3	248	0.00	30.277 
11:45	49.2	49.2	49.2	43	27.7	1	3	135	0.00	30.270 
11:50	49.4	49.4	49.4	46	29.5	1	4	0	0.00	30.270 
11:55	49.2	49.2	49.2	44	28.2	2	5	248	0.00	30.270 
12:00	49.5	49.5	49.5	45	29.0	1	3	90	0.00	30.266 
12:05	49.5	49.5	49.5	41	26.8	2	6	248	0.00	30.266 
12:10	49.5	49.5	49.5	39	25.6	1	3	270	0.00	30.266 
12:15	49.8	49.8	49.8	42	27.6	2	4	248	0.00	30.266 
12:20	49.6	49.6	49.6	42	27.5	1	3	248	0.00	30.266 
12:25	50.2	50.2	50.2	42	28.0	1	6	315	0.00	30.266 
12:30	50.5	50.5	50.5	43	28.8	2	5	248	0.00	30.265 
12:35	50.8	50.8	50.8	40	27.4	1	4	248	0.00	30.265 
12:40	51.4	51.4	51.4	46	31.3	2	10	292	0.00	30.265 
12:45	51.9	51.9	51.9	47	32.3	1	3	270	0.00	30.262 
12:50	51.7	51.7	51.7	40	28.2	3	6	270	0.00	30.262 
12:55	51.4	51.4	51.4	39	27.3	1	6	248	0.00	30.262 
13:00	51.4	51.4	51.4	43	29.7	1	3	22	0.00	30.260 
13:05	51.6	51.6	51.6	38	26.8	1	5	270	0.00	30.260 
13:10	51.7	51.7	51.7	41	28.8	2	5	248	0.00	30.260 
13:15	51.6	51.6	51.6	39	27.5	2	5	292	0.00	30.258 
13:20	51.6	51.6	51.6	39	27.5	1	3	248	0.00	30.258 
13:25	52.2	52.2	52.2	46	32.1	1	3	338	0.00	30.258 
13:30	52.5	52.5	52.5	43	30.7	3	6	270	0.00	30.249 
13:35	52.6	52.6	52.6	42	30.2	3	9	270	0.00	30.249 
13:40	52.5	52.5	52.5	40	28.9	1	3	315	0.00	30.249 
13:45	52.8	52.8	52.8	38	27.9	1	7	315	0.00	30.248 
13:50	52.8	52.8	52.8	40	29.2	2	6	270	0.00	30.248 
13:55	52.9	52.9	52.9	43	31.0	2	5	248	0.00	30.248 
14:00	52.9	52.9	52.9	36	26.7	2	5	90	0.00	30.242 
14:05	53.1	53.1	53.1	43	31.2	1	3	112	0.00	30.242 
14:10	53.3	53.3	53.3	39	29.0	2	4	248	0.00	30.242 
14:15	53.6	53.6	53.6	38	28.6	1	4	248	0.00	30.235 
14:20	53.8	53.8	53.8	38	28.8	1	4	292	0.00	30.235 
14:25	53.2	53.2	53.2	34	25.6	1	3	338	0.00	30.235 
14:30	53.6	53.6	53.6	38	28.6	1	3	0	0.00	30.232 
14:35	53.9	53.9	53.9	35	26.9	1	2	338	0.00	30.232 
14:40	54.1	54.1	54.1	40	30.3	0	2	338	0.00	30.232 
14:45	54.7	54.7	54.7	45	33.8	1	3	22	0.00	30.230 
14:50	54.7	54.7	54.7	38	29.6	2	4	248	0.00	30.230 
14:55	55.0	55.0	55.0	34	27.2	1	4	270	0.00	30.230 
15:00	54.8	54.8	54.8	35	27.7	1	3	270	0.00	30.219 
15:05	55.0	55.0	55.0	38	29.9	1	4	292	0.00	30.219 
15:10	55.1	55.1	55.1	37	29.3	2	4	315	0.00	30.219 
15:15	54.8	54.8	54.8	37	29.0	1	4	0	0.00	30.218 
15:20	54.8	54.8	54.8	37	29.0	1	2	0	0.00	30.218 
15:25	54.8	54.8	54.8	33	26.3	1	4	292	0.00	30.218 
15:30	55.1	55.1	55.1	36	28.6	1	5	338	0.00	30.215 
15:35	55.7	55.7	55.7	34	27.8	1	4	248	0.00	30.215 
15:40	55.9	55.9	55.9	33	27.2	0	2	112	0.00	30.215 
15:45	55.6	55.6	55.6	34	27.7	1	4	112	0.00	30.201 
15:50	55.4	55.4	55.4	33	26.8	1	3	112	0.00	30.201 
15:55	55.7	55.7	55.7	37	29.8	1	4	22	0.00	30.201 
16:00	56.2	56.2	56.2	41	32.8	2	5	248	0.00	30.193 
16:05	56.5	56.5	56.5	33	27.7	2	5	248	0.00	30.193 
16:10	56.5	56.5	56.5	31	26.2	2	5	90	0.00	30.193 
16:15	56.3	56.3	56.3	39	31.7	1	5	112	0.00	30.187 
16:20	56.5	56.5	56.5	35	29.2	1	5	248	0.00	30.187 
16:25	57.0	57.0	57.0	35	29.6	2	5	248	0.00	30.187 
16:30	57.0	57.0	57.0	32	27.4	2	6	270	0.00	30.186 
16:35	56.6	56.6	56.6	34	28.6	2	5	248	0.00	30.186 
16:40	56.2	56.2	56.2	32	26.7	1	4	270	0.00	30.186 
16:45	56.5	56.5	56.5	36	29.9	1	2	315	0.00	30.186 
16:50	56.7	56.7	56.7	31	26.4	1	5	315	0.00	30.186 
16:55	56.5	56.5	56.5	33	27.7	1	3	22	0.00	30.186 
17:00	56.7	56.7	56.7	35	29.4	2	5	270	0.00	30.184 
17:05	56.7	56.7	56.7	37	30.7	2	5	225	0.00	30.184 
17:10	57.0	57.0	57.0	34	28.9	1	2	225	0.00	30.184 
17:15	57.3	57.3	57.3	32	27.7	0	2	225	0.00	30.180 
17:20	57.3	57.3	57.3	30	26.1	3	7	248	0.00	30.180 
17:25	57.2	57.2	57.2	30	26.1	2	5	248	0.00	30.180 
17:30	56.9	56.9	56.9	35	29.5	2	4	248	0.00	30.183 
17:35	56.7	56.7	56.7	31	26.4	1	5	225	0.00	30.183 
17:40	56.7	56.7	56.7	34	28.7	1	2	248	0.00	30.183 
17:45	56.3	56.3	56.3	34	28.3	2	6	90	0.00	30.173 
17:50	56.2	56.2	56.2	33	27.5	1	4	90	0.00	30.173 
17:55	56.2	56.2	56.2	35	28.9	1	4	270	0.00	30.173 
18:00	56.0	56.0	56.0	34	28.0	2	6	90	0.00	30.171 
18:05	56.3	56.3	56.3	34	28.3	1	6	248	0.00	30.171 
18:10	56.2	56.2	56.2	32	26.7	1	3	112	0.00	30.171 
18:15	56.0	56.0	56.0	32	26.6	1	4	112	0.00	30.173 
18:20	55.9	55.9	55.9	33	27.2	1	3	90	0.00	30.173 
18:25	55.7	55.7	55.7	33	27.0	2	4	90	0.00	30.173 
18:30	55.3	55.3	55.3	31	25.2	2	3	112	0.00	30.176 
18:35	55.0	55.0	55.0	33	26.4	1	3	68	0.00	30.176 
18:40	54.7	54.7	54.7	33	26.2	1	2	202	0.00	30.176 
18:45	54.7	54.7	54.7	31	24.7	0	2	135	0.00	30.177 
18:50	54.8	54.8	54.8	32	25.5	0	3	135	0.00	30.177 
18:55	54.8	54.8	54.8	32	25.5	1	4	90	0.00	30.177 
19:00	54.7	54.7	54.7	33	26.2	0	3	292	0.00	30.177 
19:05	54.5	54.5	54.5	33	26.0	0	1	292	0.00	30.177 
19:10	54.4	54.4	54.4	36	28.0	0	3	292	0.00	30.177 
19:15	54.1	54.1	54.1	35	27.1	0	2	292	0.00	30.185 
19:20	53.9	53.9	53.9	37	28.2	0	2	292	0.00	30.185 
19:25	53.8	53.8	53.8	35	26.8	0	1	292	0.00	30.185 
19:30	53.8	53.8	53.8	34	26.1	1	2	270	0.00	30.188 
19:35	53.6	53.6	53.6	36	27.3	0	1	270	0.00	30.188 
19:40	53.5	53.5	53.5	35	26.5	0	0	---	0.00	30.188 
19:45	53.2	53.2	53.2	36	26.9	0	1	270	0.00	30.188 
19:50	52.9	52.9	52.9	37	27.3	0	1	270	0.00	30.188 
19:55	52.8	52.8	52.8	38	27.9	0	0	---	0.00	30.188 
20:00	52.5	52.5	52.5	39	28.3	0	0	---	0.00	30.179 
20:05	52.0	52.0	52.0	39	27.8	0	0	---	0.00	30.179 
20:10	51.6	51.6	51.6	40	28.1	0	0	---	0.00	30.179 
20:15	51.4	51.4	51.4	39	27.3	0	1	270	0.00	30.169 
20:20	51.1	51.1	51.1	39	27.0	0	1	270	0.00	30.169 
20:25	51.0	51.0	51.0	41	28.1	0	0	---	0.00	30.169 
20:30	50.8	50.8	50.8	42	28.5	0	0	---	0.00	30.168 
20:35	50.5	50.5	50.5	43	28.8	0	0	---	0.00	30.168 
20:40	50.2	50.2	50.2	43	28.6	0	0	---	0.00	30.168 
20:45	49.9	49.9	49.9	43	28.3	0	0	---	0.00	30.167 
20:50	49.6	49.6	49.6	43	28.0	0	0	---	0.00	30.167 
20:55	49.5	49.5	49.5	43	27.9	0	0	---	0.00	30.167 
21:00	49.4	49.4	49.4	44	28.4	0	1	270	0.00	30.167 
21:05	49.2	49.2	49.2	44	28.2	0	0	---	0.00	30.167 
21:10	49.1	49.1	49.1	45	28.7	0	0	---	0.00	30.167 
21:15	48.8	48.8	48.8	45	28.4	0	0	---	0.00	30.162 
21:20	48.6	48.6	48.6	46	28.8	0	1	270	0.00	30.162 
21:25	48.6	48.6	48.6	45	28.2	0	0	---	0.00	30.162 
21:30	48.5	48.5	48.5	46	28.7	0	0	---	0.00	30.162 
21:35	48.3	48.3	48.3	47	29.0	0	0	---	0.00	30.162 
21:40	48.2	48.2	48.2	47	28.9	0	0	---	0.00	30.162 
21:45	47.7	47.7	47.7	47	28.5	0	0	---	0.00	30.164 
21:50	47.3	47.3	47.3	47	28.1	0	0	---	0.00	30.164 
21:55	46.8	46.8	46.8	51	29.6	0	0	---	0.00	30.164 
22:00	46.5	46.5	46.5	51	29.4	0	0	---	0.00	30.166 
22:05	46.1	46.1	46.1	51	29.0	0	0	---	0.00	30.166 
22:10	46.0	46.0	46.0	53	29.8	0	0	---	0.00	30.166 
22:15	45.8	45.8	45.8	52	29.2	0	0	---	0.00	30.171 
22:20	45.7	45.7	45.7	52	29.1	0	0	---	0.00	30.171 
22:25	45.4	45.4	45.4	52	28.8	0	0	---	0.00	30.171 
22:30	45.1	45.1	45.1	54	29.5	0	0	---	0.00	30.174 
22:35	44.8	44.8	44.8	54	29.2	0	0	---	0.00	30.174 
22:40	44.5	44.5	44.5	55	29.3	0	0	---	0.00	30.174 
22:45	44.1	44.1	44.1	55	29.0	0	0	---	0.00	30.179 
22:50	43.8	43.8	43.8	56	29.1	0	0	---	0.00	30.179 
22:55	43.3	43.3	43.3	57	29.1	0	0	---	0.00	30.179 
23:00	42.8	42.8	42.8	57	28.6	0	0	---	0.00	30.177 
23:05	42.3	42.3	42.3	58	28.6	0	0	---	0.00	30.177 
23:10	41.9	41.9	41.9	60	29.0	0	0	---	0.00	30.177 
23:15	41.6	41.6	41.6	61	29.2	0	0	---	0.00	30.174 
23:20	41.2	41.2	41.2	61	28.8	0	0	---	0.00	30.174 
23:25	40.8	40.8	40.8	62	28.8	0	0	---	0.00	30.174 
23:30	40.5	40.5	40.5	62	28.5	0	0	---	0.00	30.177 
23:35	40.1	40.1	40.1	65	29.3	0	0	---	0.00	30.177 
23:40	39.8	39.8	39.8	65	29.0	0	0	---	0.00	30.177 
23:45	39.5	39.5	39.5	66	29.1	0	0	---	0.00	30.178 
23:50	39.2	39.2	39.2	67	29.2	0	0	---	0.00	30.178 
23:55	39.1	39.1	39.1	67	29.1	0	0	---	0.00	30.178 

CoCoRaHS
IN-AL-39
A2 Web Hosting
Creative Commons License
GoDaddy
Look for:

loaded 2017-12-13 10:13:43 • last modified 2010-11-18 10:43:29
Privacy PolicyDisclaimer
• wx.awcolley.com is powered by PmWiki v.2002016 •
• all content (unless otherwise noted) © 2017 A W Colley